sensor_id;sensor_type;location;lat;lon;timestamp;P1;durP1;ratioP1;P2;durP2;ratioP2
26582;SDS011;14230;45.382;10.998;2023-02-01T00:07:28;84.82;;;42.25;;
26582;SDS011;14230;45.382;10.998;2023-02-01T00:14:30;100.72;;;45.97;;
26582;SDS011;14230;45.382;10.998;2023-02-01T00:18:34;88.78;;;45.53;;
26582;SDS011;14230;45.382;10.998;2023-02-01T00:21:49;98.18;;;48.55;;
26582;SDS011;14230;45.382;10.998;2023-02-01T00:29:46;96.65;;;48.05;;
26582;SDS011;14230;45.382;10.998;2023-02-01T00:32:51;97.30;;;47.63;;
26582;SDS011;14230;45.382;10.998;2023-02-01T00:35:47;95.68;;;45.97;;
26582;SDS011;14230;45.382;10.998;2023-02-01T01:18:27;77.20;;;36.75;;
26582;SDS011;14230;45.382;10.998;2023-02-01T01:26:14;73.18;;;36.28;;
26582;SDS011;14230;45.382;10.998;2023-02-01T01:34:32;67.78;;;32.85;;
26582;SDS011;14230;45.382;10.998;2023-02-01T02:03:26;68.07;;;35.28;;
26582;SDS011;14230;45.382;10.998;2023-02-01T02:11:02;69.90;;;36.50;;
26582;SDS011;14230;45.382;10.998;2023-02-01T03:00:41;84.10;;;40.95;;
26582;SDS011;14230;45.382;10.998;2023-02-01T03:20:23;91.15;;;42.55;;
26582;SDS011;14230;45.382;10.998;2023-02-01T03:31:40;88.50;;;42.53;;
26582;SDS011;14230;45.382;10.998;2023-02-01T03:34:57;88.60;;;41.38;;
26582;SDS011;14230;45.382;10.998;2023-02-01T04:04:24;85.57;;;42.15;;
26582;SDS011;14230;45.382;10.998;2023-02-01T04:15:59;90.90;;;42.67;;
26582;SDS011;14230;45.382;10.998;2023-02-01T04:23:49;95.30;;;46.05;;
26582;SDS011;14230;45.382;10.998;2023-02-01T04:39:41;105.88;;;44.05;;
26582;SDS011;14230;45.382;10.998;2023-02-01T04:47:39;95.32;;;43.83;;
26582;SDS011;14230;45.382;10.998;2023-02-01T04:58:20;105.93;;;45.55;;
26582;SDS011;14230;45.382;10.998;2023-02-01T05:02:36;101.28;;;44.90;;
26582;SDS011;14230;45.382;10.998;2023-02-01T05:10:23;92.43;;;42.10;;
26582;SDS011;14230;45.382;10.998;2023-02-01T05:16:56;104.68;;;45.28;;
26582;SDS011;14230;45.382;10.998;2023-02-01T05:24:39;90.95;;;42.63;;
26582;SDS011;14230;45.382;10.998;2023-02-01T05:28:02;98.97;;;45.13;;
26582;SDS011;14230;45.382;10.998;2023-02-01T05:35:44;100.45;;;47.00;;
26582;SDS011;14230;45.382;10.998;2023-02-01T05:42:25;98.32;;;45.22;;
26582;SDS011;14230;45.382;10.998;2023-02-01T05:54:22;103.47;;;48.53;;
26582;SDS011;14230;45.382;10.998;2023-02-01T06:09:19;89.38;;;43.08;;
26582;SDS011;14230;45.382;10.998;2023-02-01T06:12:50;102.32;;;47.60;;
26582;SDS011;14230;45.382;10.998;2023-02-01T06:16:44;100.07;;;44.25;;
26582;SDS011;14230;45.382;10.998;2023-02-01T06:23:40;112.60;;;48.15;;
26582;SDS011;14230;45.382;10.998;2023-02-01T06:38:34;101.25;;;47.28;;
26582;SDS011;14230;45.382;10.998;2023-02-01T06:42:21;100.82;;;46.10;;
26582;SDS011;14230;45.382;10.998;2023-02-01T06:52:55;106.85;;;48.72;;
26582;SDS011;14230;45.382;10.998;2023-02-01T06:56:57;91.45;;;45.42;;
26582;SDS011;14230;45.382;10.998;2023-02-01T07:03:57;112.25;;;49.78;;
26582;SDS011;14230;45.382;10.998;2023-02-01T07:06:41;107.13;;;46.97;;
26582;SDS011;14230;45.382;10.998;2023-02-01T07:10:34;92.82;;;44.15;;
26582;SDS011;14230;45.382;10.998;2023-02-01T07:14:20;112.00;;;45.80;;
26582;SDS011;14230;45.382;10.998;2023-02-01T07:26:59;78.55;;;37.13;;
26582;SDS011;14230;45.382;10.998;2023-02-01T07:34:40;90.65;;;43.17;;
26582;SDS011;14230;45.382;10.998;2023-02-01T07:41:46;88.13;;;41.05;;
26582;SDS011;14230;45.382;10.998;2023-02-01T07:49:56;88.30;;;41.50;;
26582;SDS011;14230;45.382;10.998;2023-02-01T08:24:14;69.35;;;33.78;;
26582;SDS011;14230;45.382;10.998;2023-02-01T08:27:53;75.22;;;36.38;;
26582;SDS011;14230;45.382;10.998;2023-02-01T08:59:04;80.13;;;39.85;;
26582;SDS011;14230;45.382;10.998;2023-02-01T09:02:48;74.32;;;43.00;;
26582;SDS011;14230;45.382;10.998;2023-02-01T09:05:59;75.95;;;42.28;;
26582;SDS011;14230;45.382;10.998;2023-02-01T09:13:27;86.63;;;46.35;;
26582;SDS011;14230;45.382;10.998;2023-02-01T09:24:52;85.75;;;48.90;;
26582;SDS011;14230;45.382;10.998;2023-02-01T09:31:42;93.88;;;51.90;;
26582;SDS011;14230;45.382;10.998;2023-02-01T09:35:13;90.60;;;54.00;;
26582;SDS011;14230;45.382;10.998;2023-02-01T09:43:25;98.38;;;54.15;;
26582;SDS011;14230;45.382;10.998;2023-02-01T09:51:13;112.68;;;54.85;;
26582;SDS011;14230;45.382;10.998;2023-02-01T10:10:20;106.63;;;62.38;;
26582;SDS011;14230;45.382;10.998;2023-02-01T10:25:55;93.70;;;52.55;;
26582;SDS011;14230;45.382;10.998;2023-02-01T10:51:14;98.38;;;53.50;;
26582;SDS011;14230;45.382;10.998;2023-02-01T11:02:48;102.65;;;55.13;;
26582;SDS011;14230;45.382;10.998;2023-02-01T11:48:32;110.15;;;53.92;;
26582;SDS011;14230;45.382;10.998;2023-02-01T11:54:07;115.03;;;56.05;;
26582;SDS011;14230;45.382;10.998;2023-02-01T12:05:37;113.40;;;57.35;;
26582;SDS011;14230;45.382;10.998;2023-02-01T12:22:35;124.07;;;59.50;;
26582;SDS011;14230;45.382;10.998;2023-02-01T12:28:45;127.43;;;60.17;;
26582;SDS011;14230;45.382;10.998;2023-02-01T12:34:15;114.90;;;56.42;;
26582;SDS011;14230;45.382;10.998;2023-02-01T12:39:52;124.63;;;56.90;;
26582;SDS011;14230;45.382;10.998;2023-02-01T12:43:22;112.28;;;56.15;;
26582;SDS011;14230;45.382;10.998;2023-02-01T12:46:02;89.88;;;43.85;;
26582;SDS011;14230;45.382;10.998;2023-02-01T12:48:43;114.72;;;55.08;;
26582;SDS011;14230;45.382;10.998;2023-02-01T12:51:28;116.43;;;56.28;;
26582;SDS011;14230;45.382;10.998;2023-02-01T12:56:58;118.28;;;57.88;;
26582;SDS011;14230;45.382;10.998;2023-02-01T12:59:31;122.07;;;56.33;;
26582;SDS011;14230;45.382;10.998;2023-02-01T13:02:08;121.47;;;56.85;;
26582;SDS011;14230;45.382;10.998;2023-02-01T13:07:21;122.93;;;60.65;;
26582;SDS011;14230;45.382;10.998;2023-02-01T13:09:59;119.15;;;59.00;;
26582;SDS011;14230;45.382;10.998;2023-02-01T13:12:40;120.45;;;57.25;;
26582;SDS011;14230;45.382;10.998;2023-02-01T13:15:17;117.07;;;57.78;;
26582;SDS011;14230;45.382;10.998;2023-02-01T13:17:49;124.13;;;58.53;;
26582;SDS011;14230;45.382;10.998;2023-02-01T13:20:26;119.57;;;57.40;;
26582;SDS011;14230;45.382;10.998;2023-02-01T13:23:05;130.13;;;59.90;;
26582;SDS011;14230;45.382;10.998;2023-02-01T13:25:51;130.57;;;61.67;;
26582;SDS011;14230;45.382;10.998;2023-02-01T13:28:21;124.40;;;56.40;;
26582;SDS011;14230;45.382;10.998;2023-02-01T13:42:30;116.63;;;58.08;;
26582;SDS011;14230;45.382;10.998;2023-02-01T13:45:03;116.95;;;61.03;;
26582;SDS011;14230;45.382;10.998;2023-02-01T13:47:43;114.88;;;56.13;;
26582;SDS011;14230;45.382;10.998;2023-02-01T13:50:23;111.43;;;55.88;;
26582;SDS011;14230;45.382;10.998;2023-02-01T13:53:55;110.57;;;54.53;;
26582;SDS011;14230;45.382;10.998;2023-02-01T13:56:15;105.32;;;52.15;;
26582;SDS011;14230;45.382;10.998;2023-02-01T13:58:45;107.57;;;55.45;;
26582;SDS011;14230;45.382;10.998;2023-02-01T14:03:54;107.93;;;54.00;;
26582;SDS011;14230;45.382;10.998;2023-02-01T14:06:42;108.00;;;53.08;;
26582;SDS011;14230;45.382;10.998;2023-02-01T14:11:57;116.47;;;56.17;;
26582;SDS011;14230;45.382;10.998;2023-02-01T14:21:54;106.45;;;52.08;;
26582;SDS011;14230;45.382;10.998;2023-02-01T14:24:49;101.35;;;50.53;;
26582;SDS011;14230;45.382;10.998;2023-02-01T14:27:28;98.97;;;49.70;;
26582;SDS011;14230;45.382;10.998;2023-02-01T14:30:05;98.60;;;51.67;;
26582;SDS011;14230;45.382;10.998;2023-02-01T14:32:35;106.20;;;52.72;;
26582;SDS011;14230;45.382;10.998;2023-02-01T14:35:06;99.70;;;52.60;;
26582;SDS011;14230;45.382;10.998;2023-02-01T14:37:45;107.28;;;53.33;;
26582;SDS011;14230;45.382;10.998;2023-02-01T14:40:22;100.82;;;51.20;;
26582;SDS011;14230;45.382;10.998;2023-02-01T14:42:55;109.43;;;52.30;;
26582;SDS011;14230;45.382;10.998;2023-02-01T14:50:36;99.57;;;52.28;;
26582;SDS011;14230;45.382;10.998;2023-02-01T14:53:20;101.88;;;51.78;;
26582;SDS011;14230;45.382;10.998;2023-02-01T14:56:12;97.35;;;49.75;;
26582;SDS011;14230;45.382;10.998;2023-02-01T15:01:23;98.15;;;52.10;;
26582;SDS011;14230;45.382;10.998;2023-02-01T15:04:16;98.63;;;50.83;;
26582;SDS011;14230;45.382;10.998;2023-02-01T15:06:57;103.68;;;51.33;;
26582;SDS011;14230;45.382;10.998;2023-02-01T15:09:32;105.05;;;51.92;;
26582;SDS011;14230;45.382;10.998;2023-02-01T15:14:40;110.35;;;54.00;;
26582;SDS011;14230;45.382;10.998;2023-02-01T15:17:20;102.95;;;51.13;;
26582;SDS011;14230;45.382;10.998;2023-02-01T15:20:02;104.97;;;52.63;;
26582;SDS011;14230;45.382;10.998;2023-02-01T15:22:57;100.78;;;51.63;;
26582;SDS011;14230;45.382;10.998;2023-02-01T15:25:32;100.13;;;50.83;;
26582;SDS011;14230;45.382;10.998;2023-02-01T15:28:03;103.43;;;54.00;;
26582;SDS011;14230;45.382;10.998;2023-02-01T15:30:35;98.50;;;53.15;;
26582;SDS011;14230;45.382;10.998;2023-02-01T15:35:45;107.80;;;54.15;;
26582;SDS011;14230;45.382;10.998;2023-02-01T15:38:34;114.53;;;53.85;;
26582;SDS011;14230;45.382;10.998;2023-02-01T15:41:04;103.75;;;51.17;;
26582;SDS011;14230;45.382;10.998;2023-02-01T15:43:33;101.70;;;53.40;;
26582;SDS011;14230;45.382;10.998;2023-02-01T15:46:31;110.00;;;53.35;;
26582;SDS011;14230;45.382;10.998;2023-02-01T15:49:05;112.63;;;56.17;;
26582;SDS011;14230;45.382;10.998;2023-02-01T15:51:44;118.78;;;56.08;;
26582;SDS011;14230;45.382;10.998;2023-02-01T15:54:17;112.30;;;56.13;;
26582;SDS011;14230;45.382;10.998;2023-02-01T15:56:50;112.20;;;55.17;;
26582;SDS011;14230;45.382;10.998;2023-02-01T15:59:29;124.18;;;58.05;;
26582;SDS011;14230;45.382;10.998;2023-02-01T16:02:02;124.55;;;58.22;;
26582;SDS011;14230;45.382;10.998;2023-02-01T16:04:30;119.75;;;58.92;;
26582;SDS011;14230;45.382;10.998;2023-02-01T16:06:58;109.13;;;54.35;;
26582;SDS011;14230;45.382;10.998;2023-02-01T16:09:37;127.28;;;60.03;;
26582;SDS011;14230;45.382;10.998;2023-02-01T16:15:02;121.07;;;59.97;;
26582;SDS011;14230;45.382;10.998;2023-02-01T16:17:30;126.10;;;59.70;;
26582;SDS011;14230;45.382;10.998;2023-02-01T16:19:58;110.97;;;59.65;;
26582;SDS011;14230;45.382;10.998;2023-02-01T16:22:25;127.85;;;59.72;;
26582;SDS011;14230;45.382;10.998;2023-02-01T16:24:53;134.77;;;58.25;;
26582;SDS011;14230;45.382;10.998;2023-02-01T16:27:20;124.18;;;62.00;;
26582;SDS011;14230;45.382;10.998;2023-02-01T16:29:49;135.15;;;66.50;;
26582;SDS011;14230;45.382;10.998;2023-02-01T16:32:17;146.48;;;66.97;;
26582;SDS011;14230;45.382;10.998;2023-02-01T16:34:47;133.13;;;63.22;;
26582;SDS011;14230;45.382;10.998;2023-02-01T16:37:21;133.02;;;64.32;;
26582;SDS011;14230;45.382;10.998;2023-02-01T16:39:54;128.30;;;62.97;;
26582;SDS011;14230;45.382;10.998;2023-02-01T16:42:21;243.15;;;110.65;;
26582;SDS011;14230;45.382;10.998;2023-02-01T16:44:48;152.50;;;74.57;;
26582;SDS011;14230;45.382;10.998;2023-02-01T16:49:49;131.27;;;65.57;;
26582;SDS011;14230;45.382;10.998;2023-02-01T16:52:21;141.23;;;66.63;;
26582;SDS011;14230;45.382;10.998;2023-02-01T16:54:50;139.10;;;68.85;;
26582;SDS011;14230;45.382;10.998;2023-02-01T16:57:18;155.63;;;74.20;;
26582;SDS011;14230;45.382;10.998;2023-02-01T16:59:49;162.23;;;77.00;;
26582;SDS011;14230;45.382;10.998;2023-02-01T17:02:18;169.55;;;80.60;;
26582;SDS011;14230;45.382;10.998;2023-02-01T17:04:46;244.93;;;110.50;;
26582;SDS011;14230;45.382;10.998;2023-02-01T17:07:16;256.63;;;118.53;;
26582;SDS011;14230;45.382;10.998;2023-02-01T17:09:45;194.40;;;89.07;;
26582;SDS011;14230;45.382;10.998;2023-02-01T17:14:44;205.25;;;96.35;;
26582;SDS011;14230;45.382;10.998;2023-02-01T17:17:12;197.13;;;94.72;;
26582;SDS011;14230;45.382;10.998;2023-02-01T17:19:41;220.23;;;104.70;;
26582;SDS011;14230;45.382;10.998;2023-02-01T17:22:09;209.45;;;98.30;;
26582;SDS011;14230;45.382;10.998;2023-02-01T17:24:37;185.00;;;88.00;;
26582;SDS011;14230;45.382;10.998;2023-02-01T17:27:14;184.35;;;82.80;;
26582;SDS011;14230;45.382;10.998;2023-02-01T17:29:43;179.73;;;84.95;;
26582;SDS011;14230;45.382;10.998;2023-02-01T17:32:17;190.40;;;87.68;;
26582;SDS011;14230;45.382;10.998;2023-02-01T17:34:47;169.73;;;82.70;;
26582;SDS011;14230;45.382;10.998;2023-02-01T17:37:23;186.00;;;87.85;;
26582;SDS011;14230;45.382;10.998;2023-02-01T17:40:00;172.23;;;83.63;;
26582;SDS011;14230;45.382;10.998;2023-02-01T17:42:29;176.38;;;84.57;;
26582;SDS011;14230;45.382;10.998;2023-02-01T17:44:57;173.45;;;82.45;;
26582;SDS011;14230;45.382;10.998;2023-02-01T17:47:30;185.57;;;86.43;;
26582;SDS011;14230;45.382;10.998;2023-02-01T17:50:00;201.95;;;96.30;;
26582;SDS011;14230;45.382;10.998;2023-02-01T17:52:30;186.57;;;89.22;;
26582;SDS011;14230;45.382;10.998;2023-02-01T17:54:59;179.57;;;87.85;;
26582;SDS011;14230;45.382;10.998;2023-02-01T17:57:27;177.80;;;87.90;;
26582;SDS011;14230;45.382;10.998;2023-02-01T17:59:55;193.48;;;93.05;;
26582;SDS011;14230;45.382;10.998;2023-02-01T18:02:23;181.63;;;90.60;;
26582;SDS011;14230;45.382;10.998;2023-02-01T18:04:51;189.60;;;90.68;;
26582;SDS011;14230;45.382;10.998;2023-02-01T18:07:21;188.70;;;91.00;;
26582;SDS011;14230;45.382;10.998;2023-02-01T18:09:48;177.70;;;92.00;;
26582;SDS011;14230;45.382;10.998;2023-02-01T18:12:19;170.95;;;87.93;;
26582;SDS011;14230;45.382;10.998;2023-02-01T18:14:49;170.98;;;84.20;;
26582;SDS011;14230;45.382;10.998;2023-02-01T18:17:16;184.55;;;86.25;;
26582;SDS011;14230;45.382;10.998;2023-02-01T18:19:44;185.57;;;89.30;;
26582;SDS011;14230;45.382;10.998;2023-02-01T18:22:14;175.85;;;86.28;;
26582;SDS011;14230;45.382;10.998;2023-02-01T18:24:43;173.70;;;84.45;;
26582;SDS011;14230;45.382;10.998;2023-02-01T18:27:11;179.68;;;86.28;;
26582;SDS011;14230;45.382;10.998;2023-02-01T18:29:40;174.07;;;88.28;;
26582;SDS011;14230;45.382;10.998;2023-02-01T18:32:10;172.77;;;86.93;;
26582;SDS011;14230;45.382;10.998;2023-02-01T18:34:39;178.05;;;90.07;;
26582;SDS011;14230;45.382;10.998;2023-02-01T18:37:08;177.43;;;86.28;;
26582;SDS011;14230;45.382;10.998;2023-02-01T18:39:37;183.75;;;88.07;;
26582;SDS011;14230;45.382;10.998;2023-02-01T18:42:05;186.18;;;89.63;;
26582;SDS011;14230;45.382;10.998;2023-02-01T18:44:35;159.65;;;81.63;;
26582;SDS011;14230;45.382;10.998;2023-02-01T18:47:02;171.30;;;83.30;;
26582;SDS011;14230;45.382;10.998;2023-02-01T18:49:30;174.52;;;86.53;;
26582;SDS011;14230;45.382;10.998;2023-02-01T18:51:57;179.40;;;85.30;;
26582;SDS011;14230;45.382;10.998;2023-02-01T18:54:26;172.77;;;81.60;;
26582;SDS011;14230;45.382;10.998;2023-02-01T18:56:55;190.52;;;87.20;;
26582;SDS011;14230;45.382;10.998;2023-02-01T18:59:24;181.15;;;87.75;;
26582;SDS011;14230;45.382;10.998;2023-02-01T19:01:53;172.38;;;88.13;;
26582;SDS011;14230;45.382;10.998;2023-02-01T19:04:22;176.65;;;86.07;;
26582;SDS011;14230;45.382;10.998;2023-02-01T19:06:54;179.13;;;88.18;;
26582;SDS011;14230;45.382;10.998;2023-02-01T19:09:23;185.02;;;92.38;;
26582;SDS011;14230;45.382;10.998;2023-02-01T19:11:52;182.57;;;88.93;;
26582;SDS011;14230;45.382;10.998;2023-02-01T19:14:19;175.70;;;88.82;;
26582;SDS011;14230;45.382;10.998;2023-02-01T19:16:47;167.98;;;82.55;;
26582;SDS011;14230;45.382;10.998;2023-02-01T19:19:16;170.52;;;82.80;;
26582;SDS011;14230;45.382;10.998;2023-02-01T19:21:43;170.75;;;83.90;;
26582;SDS011;14230;45.382;10.998;2023-02-01T19:24:11;199.80;;;96.32;;
26582;SDS011;14230;45.382;10.998;2023-02-01T19:26:39;173.23;;;83.00;;
26582;SDS011;14230;45.382;10.998;2023-02-01T19:29:07;185.73;;;85.85;;
26582;SDS011;14230;45.382;10.998;2023-02-01T19:31:35;180.90;;;83.60;;
26582;SDS011;14230;45.382;10.998;2023-02-01T19:34:02;182.15;;;83.03;;
26582;SDS011;14230;45.382;10.998;2023-02-01T19:36:30;224.27;;;106.07;;
26582;SDS011;14230;45.382;10.998;2023-02-01T19:38:57;193.88;;;93.97;;
26582;SDS011;14230;45.382;10.998;2023-02-01T19:41:25;171.23;;;81.47;;
26582;SDS011;14230;45.382;10.998;2023-02-01T19:43:52;175.05;;;81.22;;
26582;SDS011;14230;45.382;10.998;2023-02-01T19:46:19;189.50;;;89.22;;
26582;SDS011;14230;45.382;10.998;2023-02-01T19:48:47;175.57;;;81.78;;
26582;SDS011;14230;45.382;10.998;2023-02-01T19:51:14;180.13;;;85.40;;
26582;SDS011;14230;45.382;10.998;2023-02-01T19:53:43;180.95;;;83.07;;
26582;SDS011;14230;45.382;10.998;2023-02-01T19:56:10;185.05;;;83.82;;
26582;SDS011;14230;45.382;10.998;2023-02-01T19:58:37;213.13;;;99.28;;
26582;SDS011;14230;45.382;10.998;2023-02-01T20:01:05;176.52;;;85.03;;
26582;SDS011;14230;45.382;10.998;2023-02-01T20:03:32;189.88;;;86.50;;
26582;SDS011;14230;45.382;10.998;2023-02-01T20:06:00;187.80;;;86.78;;
26582;SDS011;14230;45.382;10.998;2023-02-01T20:08:28;210.40;;;96.78;;
26582;SDS011;14230;45.382;10.998;2023-02-01T20:10:55;193.15;;;88.32;;
26582;SDS011;14230;45.382;10.998;2023-02-01T20:13:23;207.85;;;91.75;;
26582;SDS011;14230;45.382;10.998;2023-02-01T20:15:56;196.27;;;90.88;;
26582;SDS011;14230;45.382;10.998;2023-02-01T20:18:25;206.23;;;96.05;;
26582;SDS011;14230;45.382;10.998;2023-02-01T20:20:56;193.10;;;92.65;;
26582;SDS011;14230;45.382;10.998;2023-02-01T20:25:53;182.55;;;89.25;;
26582;SDS011;14230;45.382;10.998;2023-02-01T20:28:20;193.60;;;92.70;;
26582;SDS011;14230;45.382;10.998;2023-02-01T20:30:48;194.13;;;92.95;;
26582;SDS011;14230;45.382;10.998;2023-02-01T20:33:15;190.57;;;89.03;;
26582;SDS011;14230;45.382;10.998;2023-02-01T20:35:43;193.82;;;90.38;;
26582;SDS011;14230;45.382;10.998;2023-02-01T20:38:11;203.77;;;93.15;;
26582;SDS011;14230;45.382;10.998;2023-02-01T20:40:40;193.48;;;92.68;;
26582;SDS011;14230;45.382;10.998;2023-02-01T20:43:08;200.85;;;93.38;;
26582;SDS011;14230;45.382;10.998;2023-02-01T20:45:39;187.77;;;91.28;;
26582;SDS011;14230;45.382;10.998;2023-02-01T20:48:07;193.52;;;92.13;;
26582;SDS011;14230;45.382;10.998;2023-02-01T20:50:35;194.52;;;90.25;;
26582;SDS011;14230;45.382;10.998;2023-02-01T20:53:06;187.68;;;87.57;;
26582;SDS011;14230;45.382;10.998;2023-02-01T20:55:36;194.90;;;88.82;;
26582;SDS011;14230;45.382;10.998;2023-02-01T20:58:04;196.32;;;91.03;;
26582;SDS011;14230;45.382;10.998;2023-02-01T21:00:31;192.77;;;90.47;;
26582;SDS011;14230;45.382;10.998;2023-02-01T21:02:59;211.45;;;105.32;;
26582;SDS011;14230;45.382;10.998;2023-02-01T21:05:26;210.90;;;100.95;;
26582;SDS011;14230;45.382;10.998;2023-02-01T21:08:06;213.95;;;101.28;;
26582;SDS011;14230;45.382;10.998;2023-02-01T21:10:35;214.15;;;105.13;;
26582;SDS011;14230;45.382;10.998;2023-02-01T21:13:04;198.88;;;97.25;;
26582;SDS011;14230;45.382;10.998;2023-02-01T21:15:32;199.05;;;91.75;;
26582;SDS011;14230;45.382;10.998;2023-02-01T21:18:03;212.48;;;101.20;;
26582;SDS011;14230;45.382;10.998;2023-02-01T21:20:31;218.00;;;97.95;;
26582;SDS011;14230;45.382;10.998;2023-02-01T21:22:59;268.00;;;122.43;;
26582;SDS011;14230;45.382;10.998;2023-02-01T21:25:26;236.88;;;110.75;;
26582;SDS011;14230;45.382;10.998;2023-02-01T21:27:54;237.93;;;114.10;;
26582;SDS011;14230;45.382;10.998;2023-02-01T21:30:21;228.35;;;104.13;;
26582;SDS011;14230;45.382;10.998;2023-02-01T21:32:49;216.57;;;98.53;;
26582;SDS011;14230;45.382;10.998;2023-02-01T21:35:17;230.88;;;101.97;;
26582;SDS011;14230;45.382;10.998;2023-02-01T21:37:44;239.18;;;107.32;;
26582;SDS011;14230;45.382;10.998;2023-02-01T21:40:12;244.13;;;111.43;;
26582;SDS011;14230;45.382;10.998;2023-02-01T21:42:40;223.30;;;100.88;;
26582;SDS011;14230;45.382;10.998;2023-02-01T21:45:11;234.55;;;107.05;;
26582;SDS011;14230;45.382;10.998;2023-02-01T21:47:40;231.23;;;108.45;;
26582;SDS011;14230;45.382;10.998;2023-02-01T21:50:18;251.85;;;112.55;;
26582;SDS011;14230;45.382;10.998;2023-02-01T21:52:46;265.40;;;115.53;;
26582;SDS011;14230;45.382;10.998;2023-02-01T21:55:13;255.68;;;115.93;;
26582;SDS011;14230;45.382;10.998;2023-02-01T21:57:41;240.68;;;108.63;;
26582;SDS011;14230;45.382;10.998;2023-02-01T22:00:08;242.73;;;112.65;;
26582;SDS011;14230;45.382;10.998;2023-02-01T22:02:39;248.65;;;112.60;;
26582;SDS011;14230;45.382;10.998;2023-02-01T22:05:06;223.07;;;105.18;;
26582;SDS011;14230;45.382;10.998;2023-02-01T22:07:36;237.07;;;104.13;;
26582;SDS011;14230;45.382;10.998;2023-02-01T22:10:03;207.88;;;99.85;;
26582;SDS011;14230;45.382;10.998;2023-02-01T22:12:32;209.85;;;100.55;;
26582;SDS011;14230;45.382;10.998;2023-02-01T22:14:59;200.80;;;93.28;;
26582;SDS011;14230;45.382;10.998;2023-02-01T22:17:27;190.50;;;90.25;;
26582;SDS011;14230;45.382;10.998;2023-02-01T22:19:54;203.77;;;92.10;;
26582;SDS011;14230;45.382;10.998;2023-02-01T22:22:21;194.73;;;92.82;;
26582;SDS011;14230;45.382;10.998;2023-02-01T22:24:49;197.85;;;91.43;;
26582;SDS011;14230;45.382;10.998;2023-02-01T22:27:16;195.57;;;91.50;;
26582;SDS011;14230;45.382;10.998;2023-02-01T22:29:43;194.15;;;92.28;;
26582;SDS011;14230;45.382;10.998;2023-02-01T22:32:11;199.20;;;93.55;;
26582;SDS011;14230;45.382;10.998;2023-02-01T22:34:39;205.93;;;93.57;;
26582;SDS011;14230;45.382;10.998;2023-02-01T22:37:07;186.68;;;88.55;;
26582;SDS011;14230;45.382;10.998;2023-02-01T22:39:37;209.20;;;92.38;;
26582;SDS011;14230;45.382;10.998;2023-02-01T22:42:05;213.45;;;95.85;;
26582;SDS011;14230;45.382;10.998;2023-02-01T22:44:32;201.27;;;95.10;;
26582;SDS011;14230;45.382;10.998;2023-02-01T22:47:00;201.15;;;94.30;;
26582;SDS011;14230;45.382;10.998;2023-02-01T22:49:27;191.95;;;86.22;;
26582;SDS011;14230;45.382;10.998;2023-02-01T22:51:55;181.68;;;84.55;;
26582;SDS011;14230;45.382;10.998;2023-02-01T22:54:23;181.38;;;84.80;;
26582;SDS011;14230;45.382;10.998;2023-02-01T22:56:51;177.27;;;83.05;;
26582;SDS011;14230;45.382;10.998;2023-02-01T22:59:19;180.60;;;83.25;;
26582;SDS011;14230;45.382;10.998;2023-02-01T23:01:46;168.35;;;80.55;;
26582;SDS011;14230;45.382;10.998;2023-02-01T23:04:14;173.38;;;80.63;;
26582;SDS011;14230;45.382;10.998;2023-02-01T23:06:41;184.05;;;87.38;;
26582;SDS011;14230;45.382;10.998;2023-02-01T23:09:13;175.15;;;84.38;;
26582;SDS011;14230;45.382;10.998;2023-02-01T23:11:51;200.63;;;93.60;;
26582;SDS011;14230;45.382;10.998;2023-02-01T23:14:19;181.52;;;84.60;;
26582;SDS011;14230;45.382;10.998;2023-02-01T23:16:47;177.85;;;84.65;;
26582;SDS011;14230;45.382;10.998;2023-02-01T23:19:16;174.57;;;83.63;;
26582;SDS011;14230;45.382;10.998;2023-02-01T23:21:44;174.95;;;80.10;;
26582;SDS011;14230;45.382;10.998;2023-02-01T23:24:11;173.27;;;81.05;;
26582;SDS011;14230;45.382;10.998;2023-02-01T23:26:39;165.70;;;77.57;;
26582;SDS011;14230;45.382;10.998;2023-02-01T23:29:08;163.48;;;75.88;;
26582;SDS011;14230;45.382;10.998;2023-02-01T23:31:42;175.90;;;78.07;;
26582;SDS011;14230;45.382;10.998;2023-02-01T23:34:10;158.20;;;74.18;;
26582;SDS011;14230;45.382;10.998;2023-02-01T23:36:38;162.68;;;74.65;;
26582;SDS011;14230;45.382;10.998;2023-02-01T23:39:07;154.05;;;72.53;;
26582;SDS011;14230;45.382;10.998;2023-02-01T23:41:35;164.88;;;74.97;;
26582;SDS011;14230;45.382;10.998;2023-02-01T23:44:02;159.63;;;75.22;;
26582;SDS011;14230;45.382;10.998;2023-02-01T23:49:00;163.63;;;76.00;;
26582;SDS011;14230;45.382;10.998;2023-02-01T23:51:28;164.20;;;79.82;;
26582;SDS011;14230;45.382;10.998;2023-02-01T23:53:57;164.63;;;77.25;;
26582;SDS011;14230;45.382;10.998;2023-02-01T23:58:53;189.13;;;78.75;;
